Corte Madera (442) Station Data

Red Flag Warning: Yes
Fire Weather Zone: 258
SDGE Region: Mountain Empire
Lat/Lon: 32.783/-116.55

Observations

Time Wind Speed/Gust Temp(F) RH Fuel Moist Fuel Temp(F) Dewpt(F) Tmax(F) Tmin(F) Accum Precip 10-min Precip SL Press(mb)
6/27 5:00pm 278 14 G 20 81° 11% - - 23° 85.8° 63.5° - - -
6/27 4:50pm 274 14 G 19 82° 12% - - 24° 85.8° 63.5° - - -
6/27 4:40pm 276 13 G 21 82° 12% - - 25° 85.8° 63.5° - - -
6/27 4:30pm 281 12 G 20 82° 13% - - 26° 85.8° 63.5° - - -
6/27 4:20pm 286 14 G 20 82° 12% - - 25° 85.8° 63.5° - - -
6/27 4:10pm 279 10 G 16 84° 13% - - 27° 85.8° 63.5° - - -
6/27 4:00pm 279 14 G 23 83° 12% - - 26° 85.8° 63.5° - - -
6/27 3:50pm 285 12 G 19 83° 12% - - 25° 85.8° 63.5° - - -
6/27 3:40pm 289 13 G 22 83° 13% - - 26° 85.8° 63.5° - - -
6/27 3:30pm 276 16 G 23 83° 12% - - 25° 85.8° 63.5° - - -
6/27 3:20pm 273 15 G 23 83° 12% - - 25° 85.8° 63.5° - - -
6/27 3:10pm 267 16 G 23 83° 13% - - 27° 85.8° 63.5° - - -
6/27 3:00pm 278 15 G 23 84° 13% - - 27° 85.8° 63.5° - - -
6/27 2:50pm 276 14 G 21 84° 13% - - 27° 85.8° 63.5° - - -
6/27 2:40pm 272 16 G 25 84° 13% - - 27° 85.8° 63.5° - - -
6/27 2:30pm 275 15 G 22 84° 13% - - 28° 85.8° 63.5° - - -
6/27 2:20pm 273 16 G 25 84° 13% - - 28° 85.8° 63.5° - - -
6/27 2:10pm 275 15 G 24 84° 13% - - 28° 85.8° 63.5° - - -
6/27 2:00pm 276 16 G 24 84° 13% - - 28° 85.8° 63.5° - - -
6/27 1:50pm 272 16 G 24 84° 12% - - 26° 85.8° 63.5° - - -
6/27 1:40pm 281 14 G 23 85° 12% - - 27° 85.8° 63.5° - - -
6/27 1:30pm 280 16 G 24 85° 10% - - 23° 85.8° 63.5° - - -
6/27 1:20pm 294 15 G 24 85° 10% - - 22° 85.8° 63.5° - - -
6/27 1:10pm 281 15 G 24 85° 10% - - 22° 85.7° 63.5° - - -
6/27 1:00pm 283 15 G 23 85° 9% - - 21° 85.6° 63.5° - - -
6/27 12:50pm 283 14 G 23 85° 9% - - 20° 85.4° 63.5° - - -
6/27 12:40pm 285 15 G 25 85° 9% - - 20° 85.2° 63.5° - - -
6/27 12:30pm 286 15 G 25 84° 9% - - 20° 84.9° 63.5° - - -
6/27 12:20pm 274 17 G 23 84° 9% - - 20° 84.9° 63.5° - - -
6/27 12:10pm 290 16 G 25 84° 9% - - 20° 84.9° 63.5° - - -
6/27 12:00pm 288 17 G 28 84° 9% - - 18° 84.9° 63.5° - - -
6/27 11:50am 285 18 G 25 83° 9% - - 18° 84.9° 63.5° - - -
6/27 11:40am 290 17 G 26 84° 9% - - 20° 84.9° 63.5° - - -
6/27 11:30am 293 16 G 25 83° 10% - - 20° 83.7° 63.5° - - -
6/27 11:20am 279 15 G 23 83° 10% - - 21° 83.7° 63.5° - - -
6/27 11:10am 285 14 G 23 83° 10% - - 21° 83.4° 63.5° - - -
6/27 11:00am 281 15 G 24 83° 10% - - 20° 83.4° 63.5° - - -
6/27 10:50am 283 13 G 22 83° 10% - - 21° 83.4° 63.5° - - -
6/27 10:40am 286 14 G 20 82° 10% - - 21° 83.2° 63.5° - - -
6/27 10:30am 283 13 G 20 83° 10% - - 21° 83.2° 63.5° - - -
6/27 10:20am 298 12 G 23 82° 10% - - 21° 83.1° 63.5° - - -
6/27 10:10am 299 13 G 20 82° 11% - - 21° 82.5° 63.5° - - -
6/27 10:00am 292 12 G 23 81° 10% - - 21° 81.7° 63.5° - - -
6/27 9:50am 295 11 G 19 81° 10% - - 20° 81.3° 63.5° - - -
6/27 9:40am 312 11 G 18 80° 10% - - 18° 80.5° 63.5° - - -
6/27 9:30am 293 12 G 18 80° 9% - - 17° 80.5° 63.5° - - -
6/27 9:20am 295 12 G 21 80° 10% - - 19° 80.3° 63.5° - - -
6/27 9:10am 323 7 G 12 79° 12% - - 21° 79.4° 63.5° - - -
6/27 8:50am 328 8 G 12 78° 11% - - 20° 78.2° 63.5° - - -
6/27 8:40am 330 9 G 13 77° 11% - - 20° 78.1° 63.5° - - -
6/27 8:30am 339 7 G 11 78° 13% - - 23° 78.1° 63.5° - - -
6/27 8:20am 332 5 G 8 76° 15% - - 26° 77° 63.5° - - -
6/27 8:10am 331 5 G 7 75° 17% - - 27° 75.5° 63.5° - - -
6/27 8:00am 339 5 G 7 74° 18% - - 28° 75.3° 63.5° - - -
6/27 7:50am 344 5 G 8 73° 19% - - 28° 75.3° 63.5° - - -
6/27 7:40am 333 6 G 7 70° 20% - - 27° 75.3° 63.5° - - -
6/27 7:30am 325 6 G 7 68° 21% - - 27° 75.3° 63.5° - - -
6/27 7:20am 325 5 G 6 67° 21% - - 26° 75.3° 63.5° - - -
6/27 7:10am 325 6 G 6 67° 20% - - 24° 75.3° 63.5° - - -
6/27 7:00am 327 5 G 6 66° 18% - - 22° 75.3° 63.5° - - -
6/27 6:50am 324 5 G 6 65° 18% - - 21° 75.3° 63.5° - - -
6/27 6:40am 326 5 G 7 66° 17% - - 19° 75.3° 63.5° - - -
6/27 6:30am 330 5 G 7 66° 16% - - 18° 75.3° 63.5° - - -
6/27 6:20am 339 5 G 6 66° 16% - - 18° 75.3° 63.5° - - -
6/27 6:10am 329 5 G 6 65° 17% - - 18° 75.3° 63.5° - - -
6/27 6:00am 336 6 G 7 66° 15% - - 17° 75.3° 63.5° - - -
6/27 5:50am 331 5 G 6 65° 16% - - 18° 75.3° 63.5° - - -
6/27 5:40am 329 5 G 7 65° 17% - - 19° 75.3° 63.5° - - -
6/27 5:30am 324 6 G 7 64° 17% - - 19° 75.3° 63.5° - - -
6/27 5:20am 326 6 G 7 64° 17% - - 19° 75.3° 63.7° - - -
6/27 5:10am 327 6 G 7 65° 17% - - 19° 75.3° 64.1° - - -
6/27 5:00am 323 6 G 6 64° 17% - - 19° 75.3° 64.1° - - -
6/27 4:50am 320 6 G 7 65° 17% - - 18° 75.3° 64.4° - - -
6/27 4:40am 322 6 G 6 65° 15% - - 17° 75.3° 64.6° - - -
6/27 4:30am 324 6 G 7 65° 16% - - 17° 75.3° 64.6° - - -
6/27 4:20am 327 6 G 6 66° 15% - - 17° 75.3° 65.1° - - -
6/27 4:10am 330 6 G 7 67° 14% - - 17° 75.3° 65.7° - - -
6/27 4:00am 327 5 G 6 67° 15% - - 17° 75.3° 65.7° - - -
6/27 3:50am 320 5 G 6 66° 15% - - 17° 75.3° 65.7° - - -
6/27 3:40am 325 6 G 7 66° 15% - - 17° 75.3° 65.7° - - -
6/27 3:30am 333 6 G 8 68° 14% - - 17° 75.3° 66.7° - - -
6/27 3:20am 329 7 G 8 69° 13% - - 17° 75.3° 68.1° - - -
6/27 3:10am 324 6 G 7 68° 13% - - 16° 75.3° 68.1° - - -
6/27 3:00am 327 6 G 8 69° 13% - - 16° 75.3° 68.5° - - -
6/27 2:50am 355 7 G 10 70° 13% - - 17° 75.3° 68.5° - - -
6/27 2:40am 1 9 G 10 71° 12% - - 17° 75.3° 68.5° - - -
6/27 2:30am 352 7 G 9 71° 12% - - 16° 75.3° 68.5° - - -
6/27 2:20am 329 8 G 11 72° 12% - - 17° 75.3° 68.5° - - -
6/27 2:10am 324 8 G 10 71° 12% - - 15° 75.3° 68.5° - - -
6/27 2:00am 331 6 G 8 69° 12% - - 14° 75.3° 68.5° - - -
6/27 1:50am 338 6 G 7 69° 11% - - 13° 75.3° 68.6° - - -
6/27 1:40am 332 7 G 9 70° 11% - - 13° 75.3° 69.3° - - -
6/27 1:30am 323 6 G 7 70° 11% - - 13° 75.3° 69.3° - - -
6/27 1:20am 319 5 G 7 70° 10% - - 12° 75.3° 69.4° - - -
6/27 1:10am 339 6 G 8 71° 10% - - 12° 75.3° 70.8° - - -
6/27 1:00am 312 7 G 10 72° 10% - - 12° 75.3° 71.4° - - -
6/27 12:50am 302 8 G 13 73° 9% - - 12° 75.3° 72.2° - - -
6/27 12:40am 296 9 G 13 73° 9% - - 12° 75.3° 72.7° - - -
6/27 12:30am 296 8 G 11 73° 10% - - 12° 75.3° 72.7° - - -
6/27 12:20am 305 6 G 9 74° 10% - - 13° 75.3° 73.3° - - -
6/27 12:10am 326 4 G 10 75° 9% - - 13° 75.3° 74.3° - - -
6/27 12:00am 333 2 G 5 75° 9% - - 13° 91.4° 70.6° - - -
6/26 11:50pm 9 2 G 7 75° 9% - - 13° 91.4° 70.6° - - -
6/26 11:40pm 9 3 G 7 75° 9% - - 13° 91.4° 70.6° - - -
6/26 11:30pm 351 1 G 4 75° 9% - - 13° 91.4° 70.6° - - -
6/26 11:20pm 299 4 G 7 74° 10% - - 13° 91.4° 70.6° - - -
6/26 11:10pm 290 8 G 14 74° 10% - - 14° 91.4° 70.6° - - -
6/26 11:00pm 287 10 G 16 74° 10% - - 14° 91.4° 70.6° - - -
6/26 10:50pm 284 11 G 16 75° 10% - - 14° 91.4° 70.6° - - -
6/26 10:40pm 284 14 G 21 75° 10% - - 14° 91.4° 70.6° - - -
6/26 10:30pm 282 15 G 22 75° 10% - - 15° 91.4° 70.6° - - -
6/26 10:20pm 281 14 G 21 75° 10% - - 15° 91.4° 70.6° - - -
6/26 10:10pm 283 13 G 18 75° 10% - - 15° 91.4° 70.6° - - -
6/26 10:00pm 288 10 G 15 74° 11% - - 16° 91.4° 70.6° - - -
6/26 9:50pm 299 7 G 11 74° 12% - - 17° 91.4° 70.6° - - -
6/26 9:40pm 310 6 G 8 74° 12% - - 18° 91.4° 70.6° - - -
6/26 9:30pm 315 6 G 8 74° 12% - - 18° 91.4° 70.6° - - -
6/26 9:20pm 316 5 G 6 75° 12% - - 18° 91.4° 70.6° - - -
6/26 9:10pm 314 4 G 5 75° 12% - - 19° 91.4° 70.6° - - -
6/26 9:00pm 317 4 G 6 75° 12% - - 20° 91.4° 70.6° - - -
6/26 8:50pm 313 5 G 6 76° 13% - - 22° 91.4° 70.6° - - -
6/26 8:40pm 317 5 G 8 76° 14% - - 23° 91.4° 70.6° - - -
6/26 8:30pm 329 5 G 7 76° 14% - - 24° 91.4° 70.6° - - -
6/26 8:20pm 332 5 G 8 76° 15% - - 26° 91.4° 70.6° - - -
6/26 8:10pm 324 4 G 5 77° 15% - - 26° 91.4° 70.6° - - -
6/26 8:00pm 316 4 G 7 78° 15% - - 26° 91.4° 70.6° - - -
6/26 7:50pm 304 5 G 8 79° 14% - - 26° 91.4° 70.6° - - -
6/26 7:40pm 295 6 G 10 80° 13% - - 25° 91.4° 70.6° - - -
6/26 7:30pm 291 8 G 11 81° 12% - - 25° 91.4° 70.6° - - -
6/26 7:20pm 289 9 G 14 82° 12% - - 24° 91.4° 70.6° - - -
6/26 7:10pm 289 10 G 17 83° 11% - - 23° 91.4° 70.6° - - -
6/26 7:00pm 289 11 G 15 83° 11% - - 22° 91.4° 70.6° - - -
6/26 6:50pm 287 11 G 17 84° 10% - - 23° 91.4° 70.6° - - -
6/26 6:40pm 284 12 G 18 85° 10% - - 23° 91.4° 70.6° - - -
6/26 6:30pm 290 12 G 19 85° 10% - - 22° 91.4° 70.6° - - -
6/26 6:20pm 292 11 G 19 86° 10% - - 23° 91.4° 70.6° - - -
6/26 6:10pm 297 13 G 21 86° 10% - - 23° 91.4° 70.6° - - -
6/26 6:00pm 298 11 G 19 87° 9% - - 22° 91.4° 70.6° - - -
6/26 5:50pm 300 14 G 23 87° 9% - - 21° 91.4° 70.6° - - -
6/26 5:40pm 301 16 G 26 87° 9% - - 21° 91.4° 70.6° - - -
6/26 5:30pm 292 15 G 24 87° 9% - - 21° 91.4° 70.6° - - -
6/26 5:20pm 291 17 G 25 88° 9% - - 21° 91.4° 70.6° - - -
6/26 5:10pm 295 14 G 22 88° 9% - - 21° 91.4° 70.6° - - -
6/26 5:00pm 297 16 G 26 88° 9% - - 21° 91.4° 70.6° - - -
6/26 4:50pm 301 14 G 23 89° 8% - - 21° 91.4° 70.6° - - -
6/26 4:40pm 295 14 G 22 89° 8% - - 21° 91.4° 70.6° - - -
6/26 4:30pm 297 15 G 25 89° 9% - - 23° 91.4° 70.6° - - -
6/26 4:20pm 298 14 G 23 90° 10% - - 25° 91.4° 70.6° - - -
6/26 4:10pm 287 15 G 21 89° 10% - - 25° 91.4° 70.6° - - -
6/26 4:00pm 295 16 G 25 89° 10% - - 26° 91.4° 70.6° - - -
6/26 3:50pm 293 16 G 26 89° 10% - - 26° 91.4° 70.6° - - -
6/26 3:40pm 294 17 G 25 89° 11% - - 27° 91.4° 70.6° - - -
6/26 3:30pm 293 16 G 26 90° 10% - - 27° 91.4° 70.6° - - -
6/26 3:20pm 294 16 G 26 90° 10% - - 26° 91.4° 70.6° - - -
6/26 3:10pm 305 16 G 26 90° 10% - - 26° 91.4° 70.6° - - -
6/26 3:00pm 303 15 G 25 90° 10% - - 27° 91.4° 70.6° - - -
6/26 2:50pm 300 15 G 26 90° 10% - - 25° 91.4° 70.6° - - -
6/26 2:40pm 289 16 G 26 90° 11% - - 28° 91.4° 70.6° - - -
6/26 2:30pm 290 15 G 22 91° 11% - - 30° 91.4° 70.6° - - -
6/26 2:20pm 296 15 G 27 90° 11% - - 29° 91.4° 70.6° - - -
6/26 2:10pm 293 15 G 25 90° 10% - - 27° 91.4° 70.6° - - -
6/26 2:00pm 295 14 G 24 90° 10% - - 27° 91.4° 70.6° - - -
6/26 1:50pm 291 15 G 26 90° 10% - - 26° 91.4° 70.6° - - -
6/26 1:40pm 289 15 G 22 90° 10% - - 27° 91.4° 70.6° - - -
6/26 1:30pm 296 15 G 26 90° 10% - - 26° 91.4° 70.6° - - -
6/26 1:20pm 285 13 G 23 90° 10% - - 26° 91.4° 70.6° - - -
6/26 1:10pm 288 17 G 25 90° 9% - - 24° 91.4° 70.6° - - -
6/26 1:00pm 289 15 G 26 90° 9% - - 24° 91.4° 70.6° - - -
6/26 12:50pm 292 14 G 22 90° 9% - - 24° 91.4° 70.6° - - -
6/26 12:40pm 309 11 G 20 90° 9% - - 25° 91.4° 70.6° - - -
6/26 12:30pm 297 14 G 22 90° 9% - - 24° 90.5° 70.6° - - -
6/26 12:20pm 295 15 G 23 89° 9% - - 24° 90.5° 70.6° - - -
6/26 12:10pm 305 11 G 23 89° 10% - - 26° 90.5° 70.6° - - -
6/26 12:00pm 290 14 G 24 89° 10% - - 25° 90.5° 70.6° - - -
6/26 11:50am 305 11 G 21 90° 11% - - 27° 90.5° 70.6° - - -
6/26 11:40am 329 12 G 20 89° 10% - - 26° 90.5° 70.6° - - -
6/26 11:30am 319 12 G 18 90° 10% - - 27° 90.5° 70.6° - - -
6/26 11:20am 314 14 G 23 89° 10% - - 25° 89.5° 70.6° - - -
6/26 11:10am 317 13 G 20 89° 10% - - 26° 89.5° 70.6° - - -
6/26 11:00am 318 12 G 22 89° 11% - - 26° 89° 70.6° - - -
6/26 10:50am 324 12 G 20 88° 10% - - 26° 88.4° 70.6° - - -
6/26 10:40am 319 13 G 20 88° 11% - - 26° 88.4° 70.6° - - -
6/26 10:30am 303 14 G 21 88° 10% - - 26° 88.2° 70.6° - - -
6/26 10:20am 310 11 G 21 88° 11% - - 26° 88.2° 70.6° - - -
6/26 10:10am 309 11 G 20 88° 11% - - 26° 87.9° 70.6° - - -
6/26 10:00am 309 12 G 20 87° 11% - - 27° 87.6° 70.6° - - -
6/26 9:50am 318 11 G 21 87° 12% - - 28° 87.3° 70.6° - - -
6/26 9:40am 327 11 G 20 87° 12% - - 28° 87° 70.6° - - -
6/26 9:30am 332 9 G 16 86° 12% - - 28° 86.6° 70.6° - - -
6/26 9:20am 333 11 G 19 86° 11% - - 26° 85.8° 70.6° - - -
6/26 9:10am 326 9 G 14 85° 13% - - 29° 85.4° 70.6° - - -
6/26 9:00am 328 8 G 14 84° 15% - - 32° 84.7° 70.6° - - -
6/26 8:50am 330 6 G 9 83° 19% - - 36° 83.6° 70.6° - - -
6/26 8:40am 330 5 G 8 81° 22% - - 38° 81.9° 70.6° - - -
6/26 8:30am 339 5 G 8 80° 21% - - 37° 81.3° 70.6° - - -
6/26 8:20am 340 6 G 9 79° 20% - - 34° 80.8° 70.6° - - -
6/26 8:10am 337 6 G 9 79° 19% - - 33° 80.8° 70.6° - - -
6/26 8:00am 336 6 G 9 78° 20% - - 33° 80.8° 70.6° - - -
6/26 7:50am 347 7 G 9 77° 20% - - 33° 80.8° 70.6° - - -
6/26 7:40am 340 7 G 9 77° 20% - - 33° 80.8° 70.6° - - -
6/26 7:30am 336 7 G 9 75° 20% - - 32° 80.8° 70.6° - - -
6/26 7:20am 329 7 G 8 75° 19% - - 30° 80.8° 70.6° - - -
6/26 7:10am 331 6 G 8 75° 18% - - 29° 80.8° 70.6° - - -
6/26 7:00am 332 5 G 7 74° 19% - - 29° 80.8° 70.6° - - -
6/26 6:50am 337 6 G 10 75° 18% - - 29° 80.8° 70.6° - - -
6/26 6:40am 342 6 G 7 74° 17% - - 27° 80.8° 70.6° - - -
6/26 6:30am 332 6 G 7 73° 17% - - 26° 80.8° 70.6° - - -
6/26 6:20am 334 6 G 8 74° 16% - - 25° 80.8° 70.6° - - -
6/26 6:10am 338 7 G 9 73° 16% - - 25° 80.8° 70.6° - - -
6/26 6:00am 329 6 G 8 73° 16% - - 25° 80.8° 70.6° - - -